Ash Hill, North Carolina
Current Conditions -  °F | °C
As of 7:55 PM on Wednesday 22 Oct 2014 (Local Time) from KMWK Reporting Station
Scattered Clouds Scattered Clouds  
Wind Chill: 11°   Ceiling: Unl
Heat Index: 11°   Visibility: 10mi
Dew Point:   Wind: 9mph
Humidity: 64%   Direction: 320°NW
Pressure: 30.1"   Gusts: NA
Location:  36.3687°N, 80.588°W
Report Text: KMWK 222355Z AUTO 32008KT 280V360 10SM SCT037 11/05 A3010 RMK AO2 T01120046 10162 20112
Loading
Personal Weather Stations






























Interactive Weather Map
Tropical Storm Tracking
New forecast layout! Learn more

10-Day Weather Forecast

Advertisements
Track Severe Weather on mobile